Time;durP1;ratioP1;P1;durP2;ratioP2;P2;SDS_P1;SDS_P2;PMS_P1;PMS_P2;Temp;Humidity;BMP_temperature;BMP_pressure;BME280_temperature;BME280_humidity;BME280_pressure;Samples;Min_cycle;Max_cycle;Signal;HPM_P1;HPM_P2
2021/05/20 00:00:47;;;;;;;1.73;1.63;;;;;;;;;;5025212;28;20207;-75
2021/05/20 00:03:13;;;;;;;3.80;2.37;;;;;;;;;;5024229;28;20780;-75
2021/05/20 00:05:39;;;;;;;1.57;1.47;;;;;;;;;;5020778;28;20188;-75
2021/05/20 00:08:05;;;;;;;2.47;1.60;;;;;;;;;;5022718;28;20238;-75
2021/05/20 00:10:31;;;;;;;1.70;1.60;;;;;;;;;;5024344;28;20223;-75
2021/05/20 00:12:57;;;;;;;1.97;1.40;;;;;;;;;;5020386;28;20213;-74
2021/05/20 00:15:23;;;;;;;2.03;1.67;;;;;;;;;;5021469;28;20192;-75
2021/05/20 00:17:49;;;;;;;4.00;1.67;;;;;;;;;;5022637;28;20212;-75
2021/05/20 00:20:15;;;;;;;1.80;1.37;;;;;;;;;;5016231;28;20526;-75
2021/05/20 00:22:41;;;;;;;1.43;1.33;;;;;;;;;;5027980;28;20188;-75
2021/05/20 00:25:07;;;;;;;2.30;1.50;;;;;;;;;;5030845;28;20536;-74
2021/05/20 00:27:33;;;;;;;1.90;1.70;;;;;;;;;;5027716;28;20343;-74
2021/05/20 00:29:59;;;;;;;3.43;1.40;;;;;;;;;;5040071;28;20275;-74
2021/05/20 00:32:25;;;;;;;7.50;1.73;;;;;;;;;;5036731;28;20207;-74
2021/05/20 00:34:52;;;;;;;2.03;1.47;;;;;;;;;;5031917;28;20184;-75
2021/05/20 00:37:18;;;;;;;1.50;1.40;;;;;;;;;;5026941;28;20246;-74
2021/05/20 00:39:44;;;;;;;1.83;1.50;;;;;;;;;;5026664;28;20302;-75
2021/05/20 00:42:11;;;;;;;1.40;1.30;;;;;;;;;;5034793;28;20189;-74
2021/05/20 00:44:53;;;;;;;1.50;1.40;;;;;;;;;;5025750;28;20214;-75
2021/05/20 00:47:23;;;;;;;2.37;1.67;;;;;;;;;;5028576;28;20196;-74
2021/05/20 00:49:50;;;;;;;2.43;1.77;;;;;;;;;;5029949;28;20217;-75
2021/05/20 00:52:16;;;;;;;3.30;1.67;;;;;;;;;;5034264;28;20231;-75
2021/05/20 00:54:42;;;;;;;1.83;1.73;;;;;;;;;;5024692;28;20212;-75
2021/05/20 00:57:09;;;;;;;4.87;1.90;;;;;;;;;;5025348;28;20267;-75
2021/05/20 00:59:35;;;;;;;2.07;1.50;;;;;;;;;;5021567;28;20204;-74
2021/05/20 01:02:02;;;;;;;1.77;1.50;;;;;;;;;;5026615;28;20645;-75
2021/05/20 01:04:28;;;;;;;1.73;1.40;;;;;;;;;;5023993;28;20193;-75
2021/05/20 01:06:54;;;;;;;2.47;1.50;;;;;;;;;;5021242;28;20190;-75
2021/05/20 01:09:20;;;;;;;1.50;1.40;;;;;;;;;;5024308;28;20205;-75
2021/05/20 01:11:46;;;;;;;2.90;1.50;;;;;;;;;;5025498;28;20633;-76
2021/05/20 01:14:12;;;;;;;1.77;1.63;;;;;;;;;;5021567;28;20671;-75
2021/05/20 01:16:38;;;;;;;1.70;1.60;;;;;;;;;;5025958;28;20732;-75
2021/05/20 01:19:05;;;;;;;1.70;1.60;;;;;;;;;;5032544;28;20210;-74
2021/05/20 01:21:32;;;;;;;2.00;1.70;;;;;;;;;;5044778;28;20197;-75
2021/05/20 01:23:58;;;;;;;1.60;1.50;;;;;;;;;;5050382;28;20183;-74
2021/05/20 01:26:25;;;;;;;1.60;1.50;;;;;;;;;;5034409;28;20541;-74
2021/05/20 01:28:51;;;;;;;1.90;1.70;;;;;;;;;;5026191;28;20183;-74
2021/05/20 01:31:17;;;;;;;1.60;1.50;;;;;;;;;;5024910;28;20215;-74
2021/05/20 01:33:43;;;;;;;1.97;1.73;;;;;;;;;;5023407;28;20186;-74
2021/05/20 01:36:09;;;;;;;3.10;2.30;;;;;;;;;;5023404;28;20215;-75
2021/05/20 01:41:05;;;;;;;1.80;1.70;;;;;;;;;;5017418;28;20635;-74
2021/05/20 01:43:32;;;;;;;3.13;1.97;;;;;;;;;;5016416;28;20247;-74
2021/05/20 01:45:59;;;;;;;2.30;1.87;;;;;;;;;;5018909;28;20181;-75
2021/05/20 01:48:26;;;;;;;1.97;1.77;;;;;;;;;;5021644;28;20669;-74
2021/05/20 01:50:52;;;;;;;2.23;1.67;;;;;;;;;;5021446;28;20211;-75
2021/05/20 01:53:18;;;;;;;2.40;1.70;;;;;;;;;;5028122;28;20216;-74
2021/05/20 01:55:48;;;;;;;1.70;1.60;;;;;;;;;;5026415;28;20222;-75
2021/05/20 01:58:14;;;;;;;2.03;1.90;;;;;;;;;;5021742;28;20803;-74
2021/05/20 02:00:40;;;;;;;2.33;1.83;;;;;;;;;;5020449;28;20212;-75
2021/05/20 02:03:06;;;;;;;2.27;2.03;;;;;;;;;;5026931;28;20264;-75
2021/05/20 02:05:32;;;;;;;1.50;1.40;;;;;;;;;;5022784;28;20279;-75
2021/05/20 02:07:58;;;;;;;3.20;1.77;;;;;;;;;;5021662;28;20245;-75
2021/05/20 02:10:24;;;;;;;1.80;1.50;;;;;;;;;;5022747;28;20575;-75
2021/05/20 02:12:50;;;;;;;2.10;1.70;;;;;;;;;;5026377;28;20213;-74
2021/05/20 02:15:16;;;;;;;2.37;1.87;;;;;;;;;;5013110;28;20200;-74
2021/05/20 02:17:42;;;;;;;1.70;1.60;;;;;;;;;;5012601;28;20690;-75
2021/05/20 02:20:09;;;;;;;2.00;1.80;;;;;;;;;;5029009;28;20284;-74
2021/05/20 02:22:35;;;;;;;2.83;1.90;;;;;;;;;;5028050;28;20314;-75
2021/05/20 02:25:02;;;;;;;2.20;1.90;;;;;;;;;;5020022;28;20192;-75
2021/05/20 02:27:28;;;;;;;1.93;1.83;;;;;;;;;;5025459;28;20190;-75
2021/05/20 02:29:54;;;;;;;2.60;1.80;;;;;;;;;;5019652;28;20605;-74
2021/05/20 02:32:20;;;;;;;2.13;1.93;;;;;;;;;;5023867;28;20215;-75
2021/05/20 02:34:46;;;;;;;3.17;2.13;;;;;;;;;;5013196;28;20589;-75
2021/05/20 02:37:12;;;;;;;2.10;1.60;;;;;;;;;;5023685;28;20192;-75
2021/05/20 02:39:38;;;;;;;1.87;1.77;;;;;;;;;;5018621;28;20266;-75
2021/05/20 02:42:05;;;;;;;2.30;1.60;;;;;;;;;;5018930;28;20218;-75
2021/05/20 02:44:31;;;;;;;1.97;1.73;;;;;;;;;;5024265;28;20189;-74
2021/05/20 02:46:57;;;;;;;1.67;1.43;;;;;;;;;;5018400;28;20184;-75
2021/05/20 02:49:23;;;;;;;2.10;1.77;;;;;;;;;;5023816;28;20218;-74
2021/05/20 02:51:49;;;;;;;2.67;2.23;;;;;;;;;;5027705;28;20687;-75
2021/05/20 02:54:15;;;;;;;1.90;1.80;;;;;;;;;;5019408;28;20224;-75
2021/05/20 02:56:41;;;;;;;1.83;1.73;;;;;;;;;;5015887;28;20209;-75
2021/05/20 02:59:09;;;;;;;1.87;1.70;;;;;;;;;;5035305;28;20184;-75
2021/05/20 03:01:41;;;;;;;3.53;1.70;;;;;;;;;;5023604;28;20208;-74
2021/05/20 03:04:07;;;;;;;1.80;1.70;;;;;;;;;;5026475;28;20210;-74
2021/05/20 03:06:33;;;;;;;3.50;1.60;;;;;;;;;;5022920;28;20184;-75
2021/05/20 03:08:59;;;;;;;1.73;1.63;;;;;;;;;;5023374;28;20188;-74
2021/05/20 03:11:28;;;;;;;1.80;1.70;;;;;;;;;;5030046;28;20273;-74
2021/05/20 03:13:55;;;;;;;1.80;1.70;;;;;;;;;;5018615;28;20326;-75
2021/05/20 03:16:22;;;;;;;1.90;1.80;;;;;;;;;;5022425;28;20191;-74
2021/05/20 03:18:48;;;;;;;1.90;1.70;;;;;;;;;;5022040;28;20583;-75
2021/05/20 03:21:14;;;;;;;2.00;1.80;;;;;;;;;;5018636;28;20295;-75
2021/05/20 03:23:40;;;;;;;2.10;1.90;;;;;;;;;;5017291;28;20687;-75
2021/05/20 03:26:06;;;;;;;3.07;1.60;;;;;;;;;;5022831;28;20193;-75
2021/05/20 03:28:32;;;;;;;1.80;1.60;;;;;;;;;;5025635;28;20192;-75
2021/05/20 03:30:58;;;;;;;1.97;1.80;;;;;;;;;;5009669;28;20598;-75
2021/05/20 03:33:24;;;;;;;3.33;1.63;;;;;;;;;;5018368;28;20728;-75
2021/05/20 03:35:50;;;;;;;1.90;1.80;;;;;;;;;;5022721;28;20558;-74
2021/05/20 03:38:16;;;;;;;1.70;1.60;;;;;;;;;;5025673;28;20192;-75
2021/05/20 03:40:42;;;;;;;1.63;1.53;;;;;;;;;;5023767;28;20247;-74
2021/05/20 03:43:08;;;;;;;2.03;1.80;;;;;;;;;;5018905;28;20750;-75
2021/05/20 03:45:34;;;;;;;1.80;1.60;;;;;;;;;;5021261;28;20184;-75
2021/05/20 03:48:00;;;;;;;2.27;1.80;;;;;;;;;;5016933;28;20218;-74
2021/05/20 03:50:26;;;;;;;2.00;1.90;;;;;;;;;;5022238;28;20208;-74
2021/05/20 03:52:52;;;;;;;4.57;1.90;;;;;;;;;;5026678;28;20311;-74
2021/05/20 03:55:18;;;;;;;2.13;1.93;;;;;;;;;;5013702;28;20192;-74
2021/05/20 03:57:44;;;;;;;2.03;1.80;;;;;;;;;;5024511;28;20558;-75
2021/05/20 04:00:11;;;;;;;2.10;1.80;;;;;;;;;;5017890;28;20215;-75
2021/05/20 04:02:37;;;;;;;2.43;1.70;;;;;;;;;;5023676;28;20267;-75
2021/05/20 04:05:03;;;;;;;1.80;1.70;;;;;;;;;;5016385;28;20272;-75
2021/05/20 04:07:29;;;;;;;2.87;1.80;;;;;;;;;;5023540;28;20691;-75
2021/05/20 04:09:55;;;;;;;1.73;1.63;;;;;;;;;;5015319;28;20203;-75
2021/05/20 04:12:21;;;;;;;3.37;1.83;;;;;;;;;;5022217;28;20257;-75
2021/05/20 04:14:47;;;;;;;1.90;1.80;;;;;;;;;;5022224;28;20224;-75
2021/05/20 04:17:13;;;;;;;1.80;1.70;;;;;;;;;;5024022;28;20843;-75
2021/05/20 04:19:39;;;;;;;1.90;1.73;;;;;;;;;;5017793;28;20199;-75
2021/05/20 04:22:05;;;;;;;1.87;1.77;;;;;;;;;;5022689;28;20193;-75
2021/05/20 04:24:31;;;;;;;1.70;1.57;;;;;;;;;;5020496;28;20731;-75
2021/05/20 04:26:57;;;;;;;1.50;1.40;;;;;;;;;;5027030;28;20215;-75
2021/05/20 04:29:23;;;;;;;1.60;1.47;;;;;;;;;;5024641;28;20189;-75
2021/05/20 04:31:49;;;;;;;2.10;1.50;;;;;;;;;;5024391;28;20254;-75
2021/05/20 04:34:15;;;;;;;1.63;1.53;;;;;;;;;;5023205;28;20223;-73
2021/05/20 04:36:41;;;;;;;1.60;1.50;;;;;;;;;;5020260;28;20212;-74
2021/05/20 04:39:07;;;;;;;1.73;1.63;;;;;;;;;;5017997;28;20196;-73
2021/05/20 04:41:34;;;;;;;2.73;1.73;;;;;;;;;;5017472;28;20546;-73
2021/05/20 04:44:00;;;;;;;1.90;1.80;;;;;;;;;;5022729;28;20180;-74
2021/05/20 04:46:26;;;;;;;1.83;1.73;;;;;;;;;;5021128;28;20188;-74
2021/05/20 04:48:52;;;;;;;1.60;1.50;;;;;;;;;;5022101;28;20208;-73
2021/05/20 04:51:19;;;;;;;2.40;1.97;;;;;;;;;;5019114;28;20224;-72
2021/05/20 04:53:45;;;;;;;1.70;1.60;;;;;;;;;;5019329;28;20645;-73
2021/05/20 04:56:11;;;;;;;2.23;1.57;;;;;;;;;;5019440;28;20276;-73
2021/05/20 04:58:37;;;;;;;1.50;1.40;;;;;;;;;;5026104;28;20219;-72
2021/05/20 05:01:04;;;;;;;1.80;1.70;;;;;;;;;;5024725;28;20239;-74
2021/05/20 05:03:30;;;;;;;3.77;2.00;;;;;;;;;;5020412;28;20193;-74
2021/05/20 05:05:56;;;;;;;1.70;1.60;;;;;;;;;;5021933;28;20218;-74
2021/05/20 05:08:22;;;;;;;3.00;1.70;;;;;;;;;;5023495;28;20217;-74
2021/05/20 05:10:48;;;;;;;2.50;1.63;;;;;;;;;;5012796;28;21001;-74
2021/05/20 05:13:18;;;;;;;1.93;1.63;;;;;;;;;;5022365;28;20211;-74
2021/05/20 05:15:44;;;;;;;1.63;1.53;;;;;;;;;;5025815;28;20192;-74
2021/05/20 05:18:10;;;;;;;2.30;1.93;;;;;;;;;;5016711;28;20201;-73
2021/05/20 05:20:36;;;;;;;2.80;1.80;;;;;;;;;;5026118;28;20696;-74
2021/05/20 05:23:04;;;;;;;1.90;1.80;;;;;;;;;;5023967;28;20269;-75
2021/05/20 05:25:30;;;;;;;2.10;1.90;;;;;;;;;;5021159;28;20213;-74
2021/05/20 05:27:56;;;;;;;1.90;1.70;;;;;;;;;;5023652;28;20220;-74
2021/05/20 05:30:22;;;;;;;1.93;1.77;;;;;;;;;;5028941;28;20208;-73
2021/05/20 05:32:48;;;;;;;3.67;1.60;;;;;;;;;;5021987;28;20204;-74
2021/05/20 05:35:14;;;;;;;2.23;1.50;;;;;;;;;;5025334;28;20245;-74
2021/05/20 05:37:40;;;;;;;1.50;1.40;;;;;;;;;;5024610;28;20185;-74
2021/05/20 05:40:06;;;;;;;2.73;1.40;;;;;;;;;;5022968;28;20209;-74
2021/05/20 05:42:32;;;;;;;2.67;1.43;;;;;;;;;;5027398;28;20203;-74
2021/05/20 05:44:58;;;;;;;1.67;1.57;;;;;;;;;;5027394;28;20275;-75
2021/05/20 05:47:24;;;;;;;1.93;1.60;;;;;;;;;;5020666;28;20200;-74
2021/05/20 05:49:52;;;;;;;1.47;1.37;;;;;;;;;;5029482;28;20205;-74
2021/05/20 05:52:20;;;;;;;2.80;1.50;;;;;;;;;;5026707;28;20222;-75
2021/05/20 05:54:47;;;;;;;1.63;1.50;;;;;;;;;;5029484;28;21451;-75
2021/05/20 05:57:13;;;;;;;1.80;1.63;;;;;;;;;;5024378;28;20199;-74
2021/05/20 05:59:39;;;;;;;1.57;1.47;;;;;;;;;;5029915;28;20240;-75
2021/05/20 06:02:05;;;;;;;1.50;1.40;;;;;;;;;;5019871;28;20667;-74
2021/05/20 06:04:31;;;;;;;1.67;1.53;;;;;;;;;;5027990;28;20184;-76
2021/05/20 06:06:57;;;;;;;1.67;1.50;;;;;;;;;;5026943;28;20211;-74
2021/05/20 06:09:24;;;;;;;1.50;1.40;;;;;;;;;;5024421;28;20229;-73
2021/05/20 06:11:49;;;;;;;1.10;1.10;;;;;;;;;;5020684;28;20907;-75
2021/05/20 06:14:15;;;;;;;2.60;1.60;;;;;;;;;;5023435;28;20219;-75
2021/05/20 06:16:41;;;;;;;2.67;1.93;;;;;;;;;;5027144;28;20295;-76
2021/05/20 06:19:11;;;;;;;1.50;1.40;;;;;;;;;;5022283;28;20193;-75
2021/05/20 06:21:37;;;;;;;2.67;1.33;;;;;;;;;;5028293;28;20287;-74
2021/05/20 06:24:04;;;;;;;1.75;1.42;;;;;;;;;;5023939;28;20192;-75
2021/05/20 06:26:30;;;;;;;3.03;1.23;;;;;;;;;;5020359;28;20196;-74
2021/05/20 06:28:56;;;;;;;1.50;1.40;;;;;;;;;;5016400;28;20527;-72
2021/05/20 06:31:23;;;;;;;1.60;1.40;;;;;;;;;;5022549;28;20220;-73
2021/05/20 06:33:50;;;;;;;1.60;1.50;;;;;;;;;;5024148;28;20208;-73
2021/05/20 06:36:16;;;;;;;1.60;1.37;;;;;;;;;;5020971;28;20631;-73
2021/05/20 06:38:43;;;;;;;1.75;1.65;;;;;;;;;;5026616;28;20242;-74
2021/05/20 06:41:09;;;;;;;2.65;1.33;;;;;;;;;;5024176;28;20600;-74
2021/05/20 06:43:36;;;;;;;1.45;1.35;;;;;;;;;;5019862;28;20238;-75
2021/05/20 06:46:03;;;;;;;2.60;1.52;;;;;;;;;;5025331;28;20226;-74
2021/05/20 06:48:29;;;;;;;1.38;1.27;;;;;;;;;;5023561;28;20244;-74
2021/05/20 06:50:55;;;;;;;2.45;1.20;;;;;;;;;;5022765;28;20750;-74
2021/05/20 06:53:23;;;;;;;2.25;1.42;;;;;;;;;;5024206;28;20215;-71
2021/05/20 06:55:52;;;;;;;1.30;1.20;;;;;;;;;;5021457;28;20529;-74
2021/05/20 07:01:03;;;;;;;2.50;1.35;;;;;;;;;;5022185;28;20727;-75
2021/05/20 07:03:29;;;;;;;1.10;1.00;;;;;;;;;;5026556;28;20235;-74
2021/05/20 07:05:55;;;;;;;1.20;1.10;;;;;;;;;;5020953;28;20275;-73
2021/05/20 07:08:21;;;;;;;1.40;1.30;;;;;;;;;;5026431;28;20682;-73
2021/05/20 07:10:47;;;;;;;1.20;1.10;;;;;;;;;;5024502;28;20604;-73
2021/05/20 07:13:13;;;;;;;1.70;1.60;;;;;;;;;;5023654;28;20211;-72
2021/05/20 07:15:40;;;;;;;1.40;1.30;;;;;;;;;;5024754;28;20187;-73
2021/05/20 07:18:06;;;;;;;1.20;1.20;;;;;;;;;;5025325;28;20219;-73
2021/05/20 07:20:32;;;;;;;1.50;1.40;;;;;;;;;;5023066;28;20215;-73
2021/05/20 07:23:08;;;;;;;1.33;1.23;;;;;;;;;;5025517;28;20204;-73
2021/05/20 07:25:34;;;;;;;2.15;1.30;;;;;;;;;;5023571;28;20583;-73
2021/05/20 07:28:00;;;;;;;1.52;1.42;;;;;;;;;;5025153;28;20200;-73
2021/05/20 07:30:26;;;;;;;1.30;1.20;;;;;;;;;;5025082;28;20215;-73
2021/05/20 07:32:52;;;;;;;1.23;1.20;;;;;;;;;;5030278;28;21355;-73
2021/05/20 07:35:18;;;;;;;2.17;1.40;;;;;;;;;;5017758;28;20185;-73
2021/05/20 07:37:44;;;;;;;1.20;1.20;;;;;;;;;;5020975;28;20185;-73
2021/05/20 07:40:11;;;;;;;2.45;1.60;;;;;;;;;;5023575;28;20696;-74
2021/05/20 07:42:37;;;;;;;1.30;1.20;;;;;;;;;;5028909;28;20659;-74
2021/05/20 07:45:04;;;;;;;1.30;1.20;;;;;;;;;;5022613;28;20188;-73
2021/05/20 07:47:31;;;;;;;1.33;1.23;;;;;;;;;;5017315;28;20212;-74
2021/05/20 07:49:57;;;;;;;1.23;1.17;;;;;;;;;;5020044;28;20204;-73
2021/05/20 07:52:23;;;;;;;2.35;1.20;;;;;;;;;;5022977;28;20207;-73
2021/05/20 07:54:49;;;;;;;1.98;1.30;;;;;;;;;;5029687;28;20188;-75
2021/05/20 07:57:16;;;;;;;1.50;1.40;;;;;;;;;;5019055;28;20199;-72
2021/05/20 07:59:42;;;;;;;1.58;1.48;;;;;;;;;;5023935;28;20203;-74
2021/05/20 08:03:18;;;;;;;1.27;1.17;;;;;;;;;;5020364;28;20584;-75
2021/05/20 08:05:10;;;;;;;1.42;1.00;;;;;;;;;;5022566;28;20570;-73
2021/05/20 08:07:55;;;;;;;1.35;1.10;;;;;;;;;;5026367;28;20206;-75
2021/05/20 08:12:48;;;;;;;2.60;1.10;;;;;;;;;;5023615;28;20204;-74
2021/05/20 08:15:14;;;;;;;2.28;1.20;;;;;;;;;;5022394;28;20186;-73
2021/05/20 08:17:41;;;;;;;1.40;1.23;;;;;;;;;;5018870;28;20658;-73
2021/05/20 08:20:07;;;;;;;1.20;1.10;;;;;;;;;;5020238;28;20626;-74
2021/05/20 08:22:35;;;;;;;2.05;1.17;;;;;;;;;;5024559;28;20206;-74
2021/05/20 08:25:01;;;;;;;2.88;1.90;;;;;;;;;;5020685;28;20181;-75
2021/05/20 08:27:27;;;;;;;1.20;1.10;;;;;;;;;;5025521;28;20200;-74
2021/05/20 08:29:53;;;;;;;2.75;1.30;;;;;;;;;;5025284;28;20200;-72
2021/05/20 08:32:19;;;;;;;1.20;1.10;;;;;;;;;;5024481;28;20579;-73
2021/05/20 08:34:45;;;;;;;1.30;1.20;;;;;;;;;;5021248;28;20184;-72
2021/05/20 08:37:11;;;;;;;1.38;1.13;;;;;;;;;;5019786;28;20204;-73
2021/05/20 08:39:37;;;;;;;1.85;1.00;;;;;;;;;;5023568;28;20207;-74
2021/05/20 08:42:03;;;;;;;2.05;0.82;;;;;;;;;;5028916;28;20173;-75
2021/05/20 08:44:29;;;;;;;0.73;0.73;;;;;;;;;;5028824;28;20188;-74
2021/05/20 08:46:59;;;;;;;0.73;0.73;;;;;;;;;;5022366;28;20202;-73
2021/05/20 08:49:26;;;;;;;0.60;0.60;;;;;;;;;;5029490;28;20181;-73
2021/05/20 08:51:52;;;;;;;1.10;0.73;;;;;;;;;;5029338;28;20188;-73
2021/05/20 08:54:20;;;;;;;2.42;0.73;;;;;;;;;;5025683;28;20184;-73
2021/05/20 08:56:47;;;;;;;2.30;0.80;;;;;;;;;;5021635;28;20184;-74
2021/05/20 08:59:14;;;;;;;1.60;0.95;;;;;;;;;;5025729;28;20276;-75
2021/05/20 09:01:42;;;;;;;0.75;0.70;;;;;;;;;;5030876;28;20302;-75
2021/05/20 09:04:08;;;;;;;1.30;1.00;;;;;;;;;;5029391;28;20272;-75
2021/05/20 09:06:52;;;;;;;0.88;0.70;;;;;;;;;;5023997;28;20181;-75
2021/05/20 09:09:30;;;;;;;2.70;1.40;;;;;;;;;;5028087;28;20196;-75
2021/05/20 09:11:58;;;;;;;1.05;1.02;;;;;;;;;;5022516;28;20613;-74
2021/05/20 09:14:31;;;;;;;2.35;2.13;;;;;;;;;;5026503;28;20302;-74
2021/05/20 09:17:10;;;;;;;1.27;0.80;;;;;;;;;;5031556;28;20215;-75
2021/05/20 09:19:36;;;;;;;1.52;0.90;;;;;;;;;;5026574;28;20196;-75
2021/05/20 09:22:06;;;;;;;0.98;0.82;;;;;;;;;;5027208;28;20192;-75
2021/05/20 09:24:45;;;;;;;3.05;0.73;;;;;;;;;;5025768;28;20543;-72
2021/05/20 09:27:22;;;;;;;1.65;0.50;;;;;;;;;;5027685;28;20184;-72
2021/05/20 09:30:08;;;;;;;0.65;0.50;;;;;;;;;;5030759;28;20238;-73
2021/05/20 09:32:38;;;;;;;3.03;0.82;;;;;;;;;;5029783;28;20267;-71
2021/05/20 09:35:05;;;;;;;1.27;0.73;;;;;;;;;;5037055;28;20655;-73
2021/05/20 09:37:33;;;;;;;1.70;0.40;;;;;;;;;;5027192;28;20215;-72
2021/05/20 09:40:00;;;;;;;1.40;0.50;;;;;;;;;;5014866;28;20291;-72
2021/05/20 09:42:29;;;;;;;1.38;0.60;;;;;;;;;;5023775;28;20196;-73
2021/05/20 09:44:55;;;;;;;2.40;0.55;;;;;;;;;;5023784;28;20171;-73
2021/05/20 09:47:23;;;;;;;0.73;0.43;;;;;;;;;;5020323;28;20538;-72
2021/05/20 09:50:00;;;;;;;1.25;0.77;;;;;;;;;;5025181;28;20789;-72
2021/05/20 09:52:27;;;;;;;1.05;0.80;;;;;;;;;;5028588;28;20195;-73
2021/05/20 09:54:53;;;;;;;1.38;0.60;;;;;;;;;;5026165;28;20319;-73
2021/05/20 09:57:29;;;;;;;1.38;0.90;;;;;;;;;;5022953;28;20180;-73
2021/05/20 09:59:59;;;;;;;1.08;0.60;;;;;;;;;;5025406;28;20679;-73
2021/05/20 10:02:25;;;;;;;1.52;1.13;;;;;;;;;;5025682;28;20192;-73
2021/05/20 10:04:54;;;;;;;1.42;0.90;;;;;;;;;;5025552;28;20185;-73
2021/05/20 10:07:30;;;;;;;1.50;0.90;;;;;;;;;;5024956;28;20187;-73
2021/05/20 10:09:56;;;;;;;1.05;0.80;;;;;;;;;;5034743;28;20246;-75
2021/05/20 10:12:23;;;;;;;1.52;0.85;;;;;;;;;;5029724;28;20209;-73
2021/05/20 10:14:49;;;;;;;1.33;0.70;;;;;;;;;;5026335;28;20211;-73
2021/05/20 10:17:19;;;;;;;0.82;0.82;;;;;;;;;;5022655;28;20562;-72
2021/05/20 10:19:45;;;;;;;2.70;1.00;;;;;;;;;;5022427;28;22576;-73
2021/05/20 10:22:12;;;;;;;1.73;1.00;;;;;;;;;;5022472;28;20223;-73
2021/05/20 10:24:40;;;;;;;0.80;0.80;;;;;;;;;;5025171;28;20273;-74
2021/05/20 10:27:06;;;;;;;3.55;1.90;;;;;;;;;;5026423;28;20567;-73
2021/05/20 10:29:32;;;;;;;5.82;3.42;;;;;;;;;;5028756;28;20189;-73
2021/05/20 10:31:58;;;;;;;3.60;2.20;;;;;;;;;;5023362;28;20629;-73
2021/05/20 10:34:25;;;;;;;5.20;2.92;;;;;;;;;;5016241;28;20199;-73
2021/05/20 10:36:58;;;;;;;4.75;1.00;;;;;;;;;;5021623;28;20280;-73
2021/05/20 10:39:24;;;;;;;2.83;1.60;;;;;;;;;;5025972;28;20286;-73
2021/05/20 10:41:50;;;;;;;2.92;1.10;;;;;;;;;;5028740;28;20663;-74
2021/05/20 10:44:17;;;;;;;1.95;0.95;;;;;;;;;;5024040;28;20737;-73
2021/05/20 10:47:01;;;;;;;2.05;1.10;;;;;;;;;;5018399;28;21022;-74
2021/05/20 10:49:46;;;;;;;1.35;1.25;;;;;;;;;;5022618;28;20230;-74
2021/05/20 10:52:31;;;;;;;1.40;1.00;;;;;;;;;;5018915;28;20213;-74
2021/05/20 10:55:00;;;;;;;1.67;1.15;;;;;;;;;;5023481;28;20187;-74
2021/05/20 10:57:45;;;;;;;1.40;1.27;;;;;;;;;;5022103;28;20806;-73
2021/05/20 11:00:29;;;;;;;1.98;1.77;;;;;;;;;;5024993;28;20223;-73
2021/05/20 11:02:55;;;;;;;2.20;2.05;;;;;;;;;;5017110;28;20188;-73
2021/05/20 11:05:43;;;;;;;1.75;1.58;;;;;;;;;;5023761;28;20253;-74
2021/05/20 11:08:10;;;;;;;1.17;1.08;;;;;;;;;;5026327;28;20199;-75
2021/05/20 11:10:37;;;;;;;1.58;1.33;;;;;;;;;;5030471;28;20208;-73
2021/05/20 11:13:03;;;;;;;1.23;1.08;;;;;;;;;;5025377;28;20218;-73
2021/05/20 11:15:29;;;;;;;1.83;1.30;;;;;;;;;;5022229;28;20729;-74
2021/05/20 11:17:55;;;;;;;1.67;1.55;;;;;;;;;;5022525;28;20188;-73
2021/05/20 11:20:25;;;;;;;1.02;1.00;;;;;;;;;;5018327;28;20207;-73
2021/05/20 11:23:09;;;;;;;3.38;2.95;;;;;;;;;;5021952;28;20239;-74
2021/05/20 11:25:36;;;;;;;1.10;1.10;;;;;;;;;;5023974;28;20648;-75
2021/05/20 11:28:07;;;;;;;1.95;0.90;;;;;;;;;;5017413;28;20185;-74
2021/05/20 11:30:33;;;;;;;1.10;1.00;;;;;;;;;;5023669;28;20239;-74
2021/05/20 11:33:00;;;;;;;1.48;0.90;;;;;;;;;;5025302;28;20212;-74
2021/05/20 11:35:55;;;;;;;1.30;1.20;;;;;;;;;;5018490;28;20294;-74
2021/05/20 11:38:22;;;;;;;2.30;2.20;;;;;;;;;;5021042;28;20188;-74
2021/05/20 11:40:49;;;;;;;0.80;0.60;;;;;;;;;;5023960;28;20196;-73
2021/05/20 11:43:15;;;;;;;3.22;1.20;;;;;;;;;;5026289;28;20710;-75
2021/05/20 11:45:43;;;;;;;0.73;0.70;;;;;;;;;;5023304;28;20185;-74
2021/05/20 11:48:17;;;;;;;4.43;0.90;;;;;;;;;;5019965;28;20671;-73
2021/05/20 11:50:50;;;;;;;1.00;0.90;;;;;;;;;;5023799;28;20211;-74
2021/05/20 11:53:16;;;;;;;0.80;0.80;;;;;;;;;;5025794;28;20267;-74
2021/05/20 11:55:43;;;;;;;0.80;0.80;;;;;;;;;;5028138;28;20216;-74
2021/05/20 11:58:09;;;;;;;1.58;0.80;;;;;;;;;;5032444;28;20179;-74
2021/05/20 12:00:35;;;;;;;1.80;1.00;;;;;;;;;;5022261;28;20208;-74
2021/05/20 12:03:04;;;;;;;4.47;1.10;;;;;;;;;;5038654;28;20565;-74
2021/05/20 12:05:30;;;;;;;3.97;2.65;;;;;;;;;;5023394;28;20287;-75
2021/05/20 12:07:56;;;;;;;0.95;0.90;;;;;;;;;;5025564;28;20242;-74
2021/05/20 12:10:23;;;;;;;2.30;1.63;;;;;;;;;;5021028;28;20203;-74
2021/05/20 12:12:56;;;;;;;5.15;1.92;;;;;;;;;;5019767;28;20239;-73
2021/05/20 12:15:24;;;;;;;1.00;0.70;;;;;;;;;;5019534;28;20660;-74
2021/05/20 12:17:51;;;;;;;0.75;0.75;;;;;;;;;;5022225;28;20207;-74
2021/05/20 12:20:19;;;;;;;1.13;1.02;;;;;;;;;;5026428;28;20227;-73
2021/05/20 12:22:45;;;;;;;0.63;0.60;;;;;;;;;;5037249;28;20623;-73
2021/05/20 12:25:12;;;;;;;1.50;1.00;;;;;;;;;;5023700;28;20188;-73
2021/05/20 12:27:38;;;;;;;1.98;1.77;;;;;;;;;;5025163;28;20215;-74
2021/05/20 12:30:09;;;;;;;1.50;1.40;;;;;;;;;;5023058;28;20235;-73
2021/05/20 12:32:35;;;;;;;1.80;0.68;;;;;;;;;;5016004;28;20208;-73
2021/05/20 12:35:07;;;;;;;1.35;0.70;;;;;;;;;;5025787;28;20203;-73
2021/05/20 12:37:43;;;;;;;3.55;0.80;;;;;;;;;;5027017;28;20185;-73
2021/05/20 12:40:10;;;;;;;1.80;0.85;;;;;;;;;;5030076;28;20690;-74
2021/05/20 12:42:36;;;;;;;0.73;0.65;;;;;;;;;;5025170;28;20258;-73
2021/05/20 12:45:03;;;;;;;0.63;0.63;;;;;;;;;;5022737;28;20203;-74
2021/05/20 12:47:29;;;;;;;1.40;0.50;;;;;;;;;;5027199;28;20184;-73
2021/05/20 12:49:56;;;;;;;0.75;0.60;;;;;;;;;;5028120;28;20256;-73
2021/05/20 12:52:22;;;;;;;0.60;0.60;;;;;;;;;;5022248;28;20230;-73
2021/05/20 12:54:49;;;;;;;1.55;0.90;;;;;;;;;;5027781;28;20184;-74
2021/05/20 12:57:15;;;;;;;2.25;0.80;;;;;;;;;;5021065;28;20221;-73
2021/05/20 12:59:42;;;;;;;0.70;0.70;;;;;;;;;;5027011;28;20631;-73
2021/05/20 13:02:14;;;;;;;3.20;0.90;;;;;;;;;;5021698;28;20257;-73
2021/05/20 13:04:41;;;;;;;3.33;0.90;;;;;;;;;;5019442;28;20184;-73
2021/05/20 13:07:13;;;;;;;2.15;0.93;;;;;;;;;;5025434;28;20192;-73
2021/05/20 13:09:44;;;;;;;0.90;0.90;;;;;;;;;;5027280;28;20666;-73
2021/05/20 13:12:20;;;;;;;0.98;0.98;;;;;;;;;;5021108;28;20295;-73
2021/05/20 13:15:12;;;;;;;0.88;0.88;;;;;;;;;;5027961;28;20184;-73
2021/05/20 13:22:10;;;;;;;0.90;0.82;;;;;;;;;;5019067;28;20239;-73
2021/05/20 13:23:02;;;;;;;1.50;1.08;;;;;;;;;;5021743;28;20199;-73
2021/05/20 13:25:29;;;;;;;0.80;0.80;;;;;;;;;;5026520;28;20192;-73
2021/05/20 13:27:55;;;;;;;1.00;0.70;;;;;;;;;;5021193;28;20550;-73
2021/05/20 13:30:32;;;;;;;0.70;0.70;;;;;;;;;;5022976;28;20225;-73
2021/05/20 13:33:01;;;;;;;0.55;0.55;;;;;;;;;;5021960;28;20210;-72
2021/05/20 13:35:27;;;;;;;0.68;0.68;;;;;;;;;;5025938;28;20180;-73
2021/05/20 13:37:53;;;;;;;0.70;0.60;;;;;;;;;;5024887;28;20187;-74
2021/05/20 13:40:25;;;;;;;0.60;0.60;;;;;;;;;;5019278;28;20207;-73
2021/05/20 13:42:52;;;;;;;0.60;0.52;;;;;;;;;;5032551;28;20184;-73
2021/05/20 13:45:20;;;;;;;1.45;0.38;;;;;;;;;;5026457;28;20216;-73
2021/05/20 13:47:46;;;;;;;1.52;0.50;;;;;;;;;;5032362;28;20799;-74
2021/05/20 13:50:12;;;;;;;0.77;0.47;;;;;;;;;;5026889;28;20262;-73
2021/05/20 13:52:41;;;;;;;0.55;0.55;;;;;;;;;;5031031;28;20211;-74
2021/05/20 13:55:08;;;;;;;1.65;0.52;;;;;;;;;;5028101;28;20257;-73
2021/05/20 13:57:34;;;;;;;0.95;0.50;;;;;;;;;;5029104;28;20559;-73
2021/05/20 14:00:06;;;;;;;1.42;0.70;;;;;;;;;;5030748;28;20207;-73
2021/05/20 14:02:34;;;;;;;0.73;0.60;;;;;;;;;;5018714;28;20540;-73
2021/05/20 14:05:00;;;;;;;0.50;0.50;;;;;;;;;;5019528;28;20203;-73
2021/05/20 14:07:26;;;;;;;0.70;0.63;;;;;;;;;;5026137;28;20192;-72
2021/05/20 14:09:52;;;;;;;0.55;0.55;;;;;;;;;;5020143;28;20307;-72
2021/05/20 14:12:18;;;;;;;0.40;0.40;;;;;;;;;;5016742;28;20948;-72
2021/05/20 14:14:46;;;;;;;0.63;0.50;;;;;;;;;;5024609;28;20176;-72
2021/05/20 14:17:12;;;;;;;0.38;0.30;;;;;;;;;;5015312;28;20185;-72
2021/05/20 14:19:40;;;;;;;1.20;0.55;;;;;;;;;;5023637;28;20649;-72
2021/05/20 14:22:06;;;;;;;0.95;0.50;;;;;;;;;;5020909;28;20282;-71
2021/05/20 14:24:32;;;;;;;2.22;0.40;;;;;;;;;;5023986;28;20354;-72
2021/05/20 14:26:58;;;;;;;1.00;0.40;;;;;;;;;;5023912;28;20196;-72
2021/05/20 14:29:25;;;;;;;2.53;0.80;;;;;;;;;;5023765;28;20293;-72
2021/05/20 14:31:51;;;;;;;1.13;0.60;;;;;;;;;;5023439;28;20538;-72
2021/05/20 14:34:18;;;;;;;0.57;0.57;;;;;;;;;;5026046;28;20181;-72
2021/05/20 14:36:45;;;;;;;1.98;0.60;;;;;;;;;;5024023;28;20428;-72
2021/05/20 14:39:11;;;;;;;0.98;0.60;;;;;;;;;;5026151;28;20184;-72
2021/05/20 14:41:39;;;;;;;0.60;0.60;;;;;;;;;;5030798;28;20216;-73
2021/05/20 14:44:05;;;;;;;2.28;0.70;;;;;;;;;;5023618;28;20735;-72
2021/05/20 14:46:31;;;;;;;0.68;0.68;;;;;;;;;;5025685;28;20675;-72
2021/05/20 14:48:57;;;;;;;1.73;0.70;;;;;;;;;;5023785;28;20207;-73
2021/05/20 14:51:31;;;;;;;0.70;0.70;;;;;;;;;;5019789;28;20258;-71
2021/05/20 14:54:04;;;;;;;2.15;0.90;;;;;;;;;;5028340;28;20208;-73
2021/05/20 14:56:35;;;;;;;0.70;0.70;;;;;;;;;;5022894;28;20173;-72